Historyczne dane pomiarowe

Dodano dane terminowe – wersja testowa.

Dane z okresu 1951-2019

Wersja bazy: 1.34 [2019-03-16, lista zmian], aktualizacja planowana na 2019-04-15

Dane meteo z obszaru Polski uzyskane na podstawie danych udostępnionych przez Instytut Meteorologii i Gospodarki Wodnej – Państwowy Instytut Badawczy.

 

Wybierz Datę:    

       

TemperaturaWilgotnośćWiatrCiśnienieOpadyŚniegCzas trwania zjawisk
 Stacja t tx tn tng RH VA  wxwx mslp ppp RRR   cm mm wxwxwxwxwxwxwx
1956-11-09 -7.3 -1.5 -9.4-11.0 84.5- 4.3 0.3---- 0.0-- 2---------
1956-11-08 -4.1 0.3 -6.9-10.5 69.8- 4.0 1.0---- 0.0-- 3---------
1956-11-07 0.5 2.2 -1.2 -1.7 79.8- 8.0 7.0---- 3.6-- 2---------
1956-11-06 1.8 4.5 0.5 -1.4 84.3- 5.3 5.3---- 1.8------------
1956-11-05 1.3 5.3 -7.0 -8.1 79.0- 7.0 3.0---- 3.1------------
1956-11-04 -1.9 4.2 -3.8 -5.5 74.0- 4.0 0.3---- 0.0------------
1956-11-03 -0.1 2.8 -2.0 -3.4 92.3- 7.3 1.7---- 0.3------------
1956-11-02 1.0 6.1 -5.8 -8.6 78.0- 6.7 2.0---- 0.0------------
1956-11-01 -2.0 7.2 -9.3-10.2 83.0- 0.7 0.3---- 0.0------------
1956-10-31 -3.6 4.7 -5.6 -1.8 85.8- 5.0 2.3---- 0.3------------
1956-10-30 4.6 6.8 3.2 2.5 89.8- 8.0 1.3---- 0.5------------
1956-10-29 5.1 8.1 1.8 -1.5 77.5- 7.0 1.3---- 0.8------------
1956-10-28 8.9 14.6 6.3 4.5 78.8- 5.3 2.0---- 0.2------------
1956-10-27 11.1 15.8 1.9 1.5 83.3- 7.3 3.0---- 0.0------------
1956-10-26 8.0 18.3 -0.1 -1.4 87.5- 1.7 0.3---- 0.0------------
1956-10-25 7.3 18.3 1.4 -0.3 87.5- 0.0 0.7---- 0.0------------
1956-10-24 7.9 15.9 3.5 2.4 88.8- 3.0 0.3---- 0.0------------
1956-10-23 8.7 18.1 1.1 -0.1 87.3- 0.0 0.0---- 0.0------------
1956-10-22 9.5 20.0 2.7 1.8 86.8- 0.0 0.0---- 0.0------------
1956-10-21 10.5 16.4 8.2 9.0 91.5- 6.3 0.3---- 0.7------------
1956-10-20 10.7 12.8 8.8 7.2 95.0- 8.0 0.0---- 0.3------------
1956-10-19 10.5 13.5 7.5 7.6 86.0- 7.7 0.7---- 0.2------------
1956-10-18 8.4 16.2 -0.9 -2.5 80.0- 6.0 0.0---- 1.0------------
1956-10-17 5.1 14.7 -2.3 -2.4 85.3- 0.0 0.3---- 0.0------------
1956-10-16 3.6 12.1 -2.9 -3.9 82.5- 2.7 0.3---- 0.0------------
1956-10-15 3.9 12.3 -0.1 -0.9 83.8- 0.7 1.3---- 0.0------------
1956-10-14 8.8 12.3 6.7 7.4 79.0- 6.0 3.7---- 2.4------------
1956-10-13 8.4 12.1 1.6 0.1 75.3- 8.0 2.3---- 0.3------------
1956-10-12 6.2 14.5 -0.5 -2.6 83.3- 4.0 1.3---- 0.0------------
1956-10-11 3.5 10.3 0.7 -0.7 85.0- 4.3 0.3---- 0.0------------
1956-10-10 4.9 7.6 3.8 4.4 80.5- 4.7 3.0---- 0.0------------
1956-10-09 4.9 10.8 -1.2 -2.4 85.8- 6.0 0.0---- 4.0------------
1956-10-08 4.4 11.9 -0.6 -2.6 83.3- 2.0 0.3---- 0.0------------
1956-10-07 5.2 9.1 2.2 1.5 78.3- 5.3 3.0---- 0.0------------
1956-10-06 5.5 11.0 1.6 8.6 96.5- 8.0 2.3---- 18.5------------
1956-10-05 11.0 18.2 5.2 4.0 81.3- 7.0 0.7---- 12.3------------
1956-10-04 11.6 16.3 10.9 11.6 94.5- 8.0 0.7---- 2.6------------
1956-10-03 18.2 24.5 12.4 10.0 62.8- 7.3 2.0---- 2.7------------
1956-10-02 17.4 28.0 7.7 6.1 66.5- 1.7 2.3---- 0.0------------
1956-10-01 15.1 25.8 8.2 7.3 86.8- 4.7 0.3---- 0.0------------
1956-09-30 14.3 22.3 8.0 6.5 88.5- 1.3 1.0---- 0.0------------
1956-09-29 15.3 24.0 8.1 6.4 81.3- 4.0 2.3---- 0.0------------
1956-09-28 13.4 19.5 11.6 11.5 91.3- 3.3 0.7---- 0.0------------
1956-09-27 18.5 25.8 9.1 8.2 51.0- 6.0 3.0---- 0.0------------
1956-09-26 15.3 23.6 6.1 3.9 53.8- 0.0 4.3---- 0.0------------
1956-09-25 12.0 23.1 1.3 0.6 73.0- 1.7 0.7---- 0.0------------
1956-09-24 10.2 18.1 5.4 4.0 83.0- 2.7 1.0---- 0.0------------
1956-09-23 10.9 19.2 3.4 2.5 84.0- 0.3 2.0---- 0.0------------
1956-09-22 11.6 21.8 2.7 1.7 80.3- 0.0 0.0---- 0.0------------
1956-09-21 10.6 20.8 2.4 1.4 77.3- 0.7 1.0---- 0.0------------
1956-09-20 9.2 19.7 0.8 -0.9 81.5- 3.7 0.7---- 0.0------------
1956-09-19 7.4 15.2 0.0 -0.9 85.8- 2.7 0.3---- 0.0------------
1956-09-18 7.2 12.3 4.9 3.9 92.0- 5.7 1.7---- 0.0------------
1956-09-17 8.9 13.6 7.9 7.5 96.0- 7.3 2.3---- 13.3------------
1956-09-16 12.7 18.7 7.3 5.9 94.0- 4.7 0.3---- 0.0------------
1956-09-15 12.9 19.6 7.8 5.1 85.3- 5.7 1.3---- 0.0------------
1956-09-14 10.3 12.7 5.9 5.1 85.0- 7.3 5.7---- 0.0------------
1956-09-13 7.9 11.3 6.6 6.1 91.0- 6.0 3.7---- 1.4------------
1956-09-12 11.5 17.0 10.1 10.3 93.3- 7.7 2.7---- 7.3------------
1956-09-11 15.7 21.3 12.2 11.5 91.0- 7.0 1.3---- 1.2------------
261.2 ms

 

Źródłem pochodzenia danych jest Instytut Meteorologii i Gospodarki Wodnej – Państwowy Instytut Badawczy. Dane Instytutu Meteorologii i Gospodarki Wodnej – Państwowego Instytutu Badawczego zostały przetworzone.

Dane źródłowe można odnaleźć na stronie https://dane.imgw.pl